Time;durP1;ratioP1;P1;durP2;ratioP2;P2;SDS_P1;SDS_P2;PMS_P1;PMS_P2;Temp;Humidity;BMP_temperature;BMP_pressure;BME280_temperature;BME280_humidity;BME280_pressure;Samples;Min_cycle;Max_cycle;Signal;HPM_P1;HPM_P2
2023/06/17 00:02:32;;;;;;;5.10;2.80;;;25.50;35.30;;;;;;6240409;28;20064;-70
2023/06/17 00:05:33;;;;;;;8.52;3.08;;;25.50;35.30;;;;;;6240732;28;20470;-70
2023/06/17 00:08:34;;;;;;;4.43;3.05;;;25.50;35.30;;;;;;6221115;28;20108;-70
2023/06/17 00:11:34;;;;;;;4.43;2.90;;;25.40;35.60;;;;;;6230568;28;20040;-70
2023/06/17 00:14:35;;;;;;;4.53;3.42;;;25.30;35.80;;;;;;6214851;28;20033;-68
2023/06/17 00:17:37;;;;;;;2.88;2.58;;;25.30;35.80;;;;;;6215049;28;20065;-69
2023/06/17 00:20:38;;;;;;;7.00;2.90;;;25.30;35.80;;;;;;6216474;28;20030;-70
2023/06/17 00:23:39;;;;;;;5.43;2.97;;;25.30;35.90;;;;;;6214584;28;20041;-70
2023/06/17 00:26:40;;;;;;;5.43;3.28;;;25.30;36.10;;;;;;6216018;28;20045;-70
2023/06/17 00:29:41;;;;;;;8.98;3.22;;;25.40;36.30;;;;;;6215744;28;20100;-69
2023/06/17 00:32:42;;;;;;;6.65;3.33;;;25.40;36.60;;;;;;6215439;28;20033;-69
2023/06/17 00:35:42;;;;;;;4.82;3.22;;;25.30;37.10;;;;;;6214293;28;20033;-69
2023/06/17 00:38:43;;;;;;;6.15;3.63;;;25.20;37.00;;;;;;6214292;28;20033;-69
2023/06/17 00:41:44;;;;;;;4.72;2.85;;;25.10;37.10;;;;;;6213987;28;20041;-69
2023/06/17 00:44:45;;;;;;;7.50;3.42;;;25.10;37.30;;;;;;6213769;28;20084;-69
2023/06/17 00:47:46;;;;;;;5.93;3.05;;;25.10;37.30;;;;;;6197380;28;20583;-70
2023/06/17 00:50:49;;;;;;;3.97;2.88;;;25.00;37.10;;;;;;6236976;28;20037;-69
2023/06/17 00:53:51;;;;;;;4.10;2.80;;;24.90;37.20;;;;;;6237798;28;20116;-70
2023/06/17 00:56:53;;;;;;;3.78;2.95;;;24.90;37.50;;;;;;6238196;28;20029;-69
2023/06/17 00:59:54;;;;;;;4.28;3.08;;;24.80;37.60;;;;;;6239514;28;20029;-69
2023/06/17 01:02:56;;;;;;;5.35;3.08;;;24.80;37.60;;;;;;6238142;28;20029;-70
2023/06/17 01:06:02;;;;;;;7.10;3.30;;;24.70;37.90;;;;;;6239788;28;20386;-70
2023/06/17 01:09:09;;;;;;;10.02;3.00;;;24.70;38.20;;;;;;6239184;28;20466;-70
2023/06/17 01:12:13;;;;;;;5.05;2.97;;;24.60;38.20;;;;;;6239670;28;20030;-70
2023/06/17 01:15:16;;;;;;;4.90;2.88;;;24.50;38.30;;;;;;6238292;28;20038;-70
2023/06/17 01:18:20;;;;;;;4.38;3.03;;;24.40;38.50;;;;;;6238376;28;20092;-71
2023/06/17 01:21:22;;;;;;;4.85;3.00;;;24.40;38.70;;;;;;6238120;28;20463;-71
2023/06/17 01:24:30;;;;;;;4.45;3.15;;;24.30;38.90;;;;;;6239284;28;20206;-70
2023/06/17 01:27:33;;;;;;;8.52;3.17;;;24.20;39.20;;;;;;6238095;28;20040;-70
2023/06/17 01:30:34;;;;;;;6.45;2.92;;;24.20;39.40;;;;;;6239566;28;20400;-69
2023/06/17 01:33:38;;;;;;;5.65;3.10;;;24.10;39.50;;;;;;6221391;28;20026;-69
2023/06/17 01:36:40;;;;;;;6.25;2.90;;;24.10;39.80;;;;;;6238249;28;20124;-69
2023/06/17 01:39:46;;;;;;;5.22;3.35;;;24.00;39.80;;;;;;6238039;28;20069;-69
2023/06/17 01:42:50;;;;;;;5.93;3.10;;;24.00;40.00;;;;;;6238032;28;20810;-69
2023/06/17 01:45:53;;;;;;;5.80;2.72;;;24.00;40.10;;;;;;6221696;28;20030;-70
2023/06/17 01:48:55;;;;;;;4.35;3.03;;;23.90;40.10;;;;;;6222257;28;20552;-69
2023/06/17 01:51:56;;;;;;;3.70;2.83;;;23.90;40.20;;;;;;6239395;28;20442;-68
2023/06/17 01:54:58;;;;;;;5.95;2.88;;;23.80;40.20;;;;;;6238058;28;20032;-69
2023/06/17 01:57:59;;;;;;;5.15;3.10;;;23.80;40.20;;;;;;6241325;28;20486;-70
2023/06/17 02:01:00;;;;;;;5.03;2.95;;;23.80;40.20;;;;;;6244125;28;20021;-69
2023/06/17 02:04:01;;;;;;;5.03;3.28;;;23.70;40.30;;;;;;6242047;28;20026;-69
2023/06/17 02:07:03;;;;;;;6.28;3.45;;;23.60;40.40;;;;;;6242021;28;20116;-70
2023/06/17 02:10:04;;;;;;;4.47;3.28;;;23.60;40.50;;;;;;6243382;28;20075;-69
2023/06/17 02:13:05;;;;;;;4.20;2.60;;;23.50;40.60;;;;;;6241717;28;20036;-69
2023/06/17 02:16:06;;;;;;;6.93;3.15;;;23.50;40.80;;;;;;6242095;28;20541;-70
2023/06/17 02:19:07;;;;;;;7.22;3.22;;;23.40;41.70;;;;;;6242152;28;20387;-70
2023/06/17 02:22:08;;;;;;;7.72;3.10;;;23.30;41.20;;;;;;6241592;28;20438;-69
2023/06/17 02:25:09;;;;;;;5.70;3.20;;;23.30;41.50;;;;;;6241997;28;20033;-69
2023/06/17 02:28:10;;;;;;;7.38;3.40;;;23.30;41.70;;;;;;6241937;28;20033;-70
2023/06/17 02:31:12;;;;;;;4.88;3.28;;;23.10;41.80;;;;;;6241515;28;20117;-69
2023/06/17 02:34:13;;;;;;;4.95;3.33;;;23.10;42.00;;;;;;6241657;28;20208;-71
2023/06/17 02:37:16;;;;;;;6.25;3.05;;;23.10;42.20;;;;;;6241900;28;20438;-69
2023/06/17 02:40:18;;;;;;;4.15;2.83;;;23.00;42.20;;;;;;6241833;28;20036;-71
2023/06/17 02:43:19;;;;;;;4.60;3.15;;;23.00;42.30;;;;;;6241011;28;20033;-69
2023/06/17 02:46:20;;;;;;;4.55;2.75;;;23.00;42.40;;;;;;6224403;28;20040;-71
2023/06/17 02:49:21;;;;;;;9.18;3.20;;;22.90;42.40;;;;;;6224934;28;20033;-70
2023/06/17 02:52:23;;;;;;;4.22;2.92;;;22.90;42.50;;;;;;6240923;28;20134;-69
2023/06/17 02:55:27;;;;;;;3.25;2.72;;;22.90;42.50;;;;;;6224788;28;20022;-68
2023/06/17 02:58:29;;;;;;;7.25;3.70;;;22.90;42.70;;;;;;6240894;28;20057;-70
2023/06/17 03:01:31;;;;;;;4.47;3.35;;;22.80;42.70;;;;;;6240907;28;20091;-69
2023/06/17 03:04:35;;;;;;;5.75;2.95;;;22.80;42.80;;;;;;6241008;28;20486;-69
2023/06/17 03:07:36;;;;;;;4.30;3.13;;;22.80;42.80;;;;;;6215580;28;20084;-69
2023/06/17 03:10:37;;;;;;;6.93;3.08;;;22.80;42.90;;;;;;6232328;28;20034;-71
2023/06/17 03:13:43;;;;;;;3.95;2.97;;;22.80;42.80;;;;;;6216041;28;20117;-69
2023/06/17 03:16:54;;;;;;;3.97;2.70;;;22.80;43.00;;;;;;6223609;28;20037;-69
2023/06/17 03:19:57;;;;;;;6.55;3.72;;;22.80;43.00;;;;;;6240754;28;20398;-72
2023/06/17 03:22:58;;;;;;;8.23;3.45;;;22.70;43.10;;;;;;6240019;28;20037;-70
2023/06/17 03:25:59;;;;;;;6.15;3.85;;;22.70;43.20;;;;;;6240671;28;20107;-70
2023/06/17 03:29:01;;;;;;;6.32;3.58;;;22.70;43.40;;;;;;6240561;28;20112;-69
2023/06/17 03:32:02;;;;;;;7.65;3.70;;;22.60;43.50;;;;;;6223238;28;20033;-69
2023/06/17 03:35:06;;;;;;;8.50;3.38;;;22.60;43.60;;;;;;6240318;28;20048;-69
2023/06/17 03:38:08;;;;;;;6.15;3.67;;;22.60;43.80;;;;;;6239861;28;20063;-69
2023/06/17 03:41:09;;;;;;;5.18;3.70;;;22.50;44.00;;;;;;6223081;28;20136;-69
2023/06/17 03:44:10;;;;;;;6.35;3.67;;;22.50;44.10;;;;;;6241383;28;20040;-69
2023/06/17 03:47:12;;;;;;;4.55;3.55;;;22.50;44.30;;;;;;6240149;28;20611;-69
2023/06/17 03:50:14;;;;;;;7.45;3.88;;;22.40;44.40;;;;;;6240226;28;20033;-69
2023/06/17 03:53:15;;;;;;;5.78;3.80;;;22.40;44.60;;;;;;6239468;28;20139;-69
2023/06/17 03:56:16;;;;;;;11.13;3.45;;;22.30;44.70;;;;;;6239703;28;20049;-68
2023/06/17 03:59:17;;;;;;;4.28;3.13;;;22.30;44.80;;;;;;6239468;28;20017;-69
2023/06/17 04:02:19;;;;;;;6.28;3.28;;;22.30;44.90;;;;;;6238813;28;20087;-69
2023/06/17 04:05:20;;;;;;;8.20;3.50;;;22.30;45.00;;;;;;6239539;28;20041;-70
2023/06/17 04:08:23;;;;;;;6.38;3.78;;;22.30;45.10;;;;;;6238918;28;20168;-69
2023/06/17 04:11:24;;;;;;;4.38;3.25;;;22.30;45.50;;;;;;6239060;28;20038;-70
2023/06/17 04:14:25;;;;;;;7.97;3.60;;;22.30;45.70;;;;;;6239197;28;20488;-69
2023/06/17 04:17:26;;;;;;;4.95;3.60;;;22.30;45.50;;;;;;6239271;28;20131;-70
2023/06/17 04:20:26;;;;;;;12.38;3.58;;;22.30;45.40;;;;;;6240138;28;20645;-69
2023/06/17 04:23:27;;;;;;;5.47;3.63;;;22.30;45.30;;;;;;6238512;28;20119;-69
2023/06/17 04:26:30;;;;;;;8.73;3.53;;;22.30;45.10;;;;;;6239051;28;20111;-69
2023/06/17 04:29:34;;;;;;;5.05;3.30;;;22.30;45.10;;;;;;6238958;28;20336;-69
2023/06/17 04:32:38;;;;;;;5.57;3.60;;;22.20;45.10;;;;;;6238178;28;20485;-69
2023/06/17 04:35:44;;;;;;;7.00;3.88;;;22.30;45.50;;;;;;6238816;28;20113;-69
2023/06/17 04:38:47;;;;;;;5.60;3.58;;;22.40;45.80;;;;;;6222278;28;20060;-69
2023/06/17 04:41:48;;;;;;;10.63;3.90;;;22.40;46.00;;;;;;6239784;28;20037;-69
2023/06/17 04:44:50;;;;;;;6.35;3.72;;;22.40;45.80;;;;;;6238717;28;20040;-69
2023/06/17 04:47:50;;;;;;;13.95;3.33;;;22.40;45.60;;;;;;6238822;28;20033;-70
2023/06/17 04:50:52;;;;;;;13.63;3.85;;;22.40;45.50;;;;;;6238698;28;20037;-69
2023/06/17 04:53:53;;;;;;;6.32;3.35;;;22.40;45.40;;;;;;6238345;28;20099;-70
2023/06/17 04:56:54;;;;;;;5.05;3.70;;;22.30;45.40;;;;;;6238434;28;20022;-70
2023/06/17 04:59:55;;;;;;;6.47;3.75;;;22.30;45.40;;;;;;6238164;28;20041;-70
2023/06/17 05:02:57;;;;;;;4.25;3.10;;;22.30;45.40;;;;;;6237867;28;20045;-70
2023/06/17 05:05:58;;;;;;;9.48;3.50;;;22.30;45.40;;;;;;6238268;28;20056;-69
2023/06/17 05:09:03;;;;;;;4.97;3.17;;;22.30;45.50;;;;;;6228400;28;20037;-69
2023/06/17 05:12:05;;;;;;;6.35;3.50;;;22.30;45.60;;;;;;6213306;28;20151;-70
2023/06/17 05:15:06;;;;;;;5.68;3.60;;;22.20;45.70;;;;;;6213506;28;20029;-69
2023/06/17 05:18:07;;;;;;;6.00;3.58;;;22.20;45.80;;;;;;6213909;28;20026;-69
2023/06/17 05:21:08;;;;;;;6.95;3.65;;;22.20;45.80;;;;;;6213497;28;20096;-69
2023/06/17 05:24:10;;;;;;;20.50;3.65;;;22.20;45.80;;;;;;6213557;28;20041;-71
2023/06/17 05:27:11;;;;;;;8.32;3.70;;;22.20;45.80;;;;;;6197166;28;20115;-70
2023/06/17 05:30:12;;;;;;;6.43;3.55;;;22.20;45.90;;;;;;6221735;28;20634;-70
2023/06/17 05:33:15;;;;;;;9.07;3.58;;;22.20;45.90;;;;;;6241359;28;20036;-70
2023/06/17 05:36:16;;;;;;;5.80;3.92;;;22.20;45.80;;;;;;6242599;28;20113;-70
2023/06/17 05:39:17;;;;;;;4.82;3.42;;;22.20;45.80;;;;;;6242821;28;20034;-70
2023/06/17 05:42:18;;;;;;;13.05;4.25;;;22.20;45.80;;;;;;6242468;28;20664;-71
2023/06/17 05:45:20;;;;;;;5.43;3.38;;;22.30;45.60;;;;;;6226224;28;20462;-70
2023/06/17 05:48:22;;;;;;;6.35;3.45;;;22.40;45.40;;;;;;6242706;28;20044;-70
2023/06/17 05:51:23;;;;;;;7.60;3.60;;;22.50;45.30;;;;;;6243710;28;20493;-70
2023/06/17 05:54:26;;;;;;;4.68;3.45;;;22.50;45.10;;;;;;6226270;28;20449;-70
2023/06/17 05:57:27;;;;;;;6.65;3.85;;;22.50;45.00;;;;;;6242239;28;20555;-69
2023/06/17 06:00:28;;;;;;;5.40;3.90;;;22.60;45.10;;;;;;6242110;28;20036;-69
2023/06/17 06:03:30;;;;;;;6.88;3.63;;;22.70;45.20;;;;;;6241555;28;20593;-70
2023/06/17 06:06:30;;;;;;;5.07;3.38;;;22.70;45.20;;;;;;6237977;28;20068;-71
2023/06/17 06:09:31;;;;;;;8.85;3.47;;;22.80;45.20;;;;;;6245627;28;20053;-71
2023/06/17 06:12:32;;;;;;;6.10;3.83;;;22.80;45.10;;;;;;6217023;28;20329;-69
2023/06/17 06:15:33;;;;;;;9.77;4.18;;;22.90;45.20;;;;;;6217524;28;20121;-69
2023/06/17 06:18:34;;;;;;;7.50;3.67;;;22.90;45.10;;;;;;6217419;28;20045;-70
2023/06/17 06:21:35;;;;;;;5.80;3.55;;;23.00;45.10;;;;;;6217092;28;20582;-70
2023/06/17 06:24:36;;;;;;;7.65;3.50;;;23.00;45.10;;;;;;6216950;28;20395;-70
2023/06/17 06:27:37;;;;;;;7.30;3.85;;;23.00;44.90;;;;;;6234960;28;20056;-69
2023/06/17 06:30:39;;;;;;;7.00;3.55;;;23.10;44.90;;;;;;6242029;28;20025;-69
2023/06/17 06:33:40;;;;;;;6.70;3.53;;;23.20;44.80;;;;;;6243994;28;20040;-69
2023/06/17 06:36:42;;;;;;;6.97;3.55;;;23.30;44.70;;;;;;6242431;28;20501;-69
2023/06/17 06:39:43;;;;;;;7.15;4.28;;;23.40;44.50;;;;;;6241799;28;20085;-70
2023/06/17 06:42:44;;;;;;;6.63;4.47;;;23.50;44.40;;;;;;6241167;28;20087;-71
2023/06/17 06:45:53;;;;;;;6.57;3.70;;;23.60;44.30;;;;;;6241475;28;20540;-70
2023/06/17 06:48:54;;;;;;;10.18;4.78;;;23.70;44.10;;;;;;6241102;28;20124;-69
2023/06/17 06:51:55;;;;;;;5.90;4.22;;;23.80;44.00;;;;;;6224203;28;20490;-70
2023/06/17 06:54:57;;;;;;;5.32;3.60;;;24.00;43.90;;;;;;6238175;28;20036;-70
2023/06/17 06:57:58;;;;;;;5.93;4.13;;;24.00;43.70;;;;;;6241074;28;20113;-69
2023/06/17 07:00:59;;;;;;;7.70;4.25;;;24.10;43.60;;;;;;6240193;28;20030;-77
2023/06/17 07:04:01;;;;;;;9.90;5.25;;;24.20;43.40;;;;;;6240821;28;20504;-70
2023/06/17 07:07:04;;;;;;;14.43;5.65;;;24.20;42.90;;;;;;6240448;28;20120;-69
2023/06/17 07:10:09;;;;;;;9.02;5.22;;;24.20;43.00;;;;;;6216506;28;20026;-70
2023/06/17 07:13:11;;;;;;;6.70;4.60;;;24.40;42.90;;;;;;6215791;28;20033;-70
2023/06/17 07:16:14;;;;;;;8.15;4.53;;;24.80;42.30;;;;;;6215996;28;20081;-71
2023/06/17 07:19:15;;;;;;;8.43;4.30;;;25.10;41.80;;;;;;6216010;28;20042;-70
2023/06/17 07:22:16;;;;;;;11.07;4.07;;;25.40;41.50;;;;;;6204242;28;20198;-71
2023/06/17 07:25:17;;;;;;;13.00;4.22;;;25.60;41.30;;;;;;6242032;28;20132;-70
2023/06/17 07:28:18;;;;;;;5.40;3.95;;;25.70;41.10;;;;;;6240599;28;20453;-72
2023/06/17 07:31:20;;;;;;;7.15;3.63;;;25.80;41.00;;;;;;6223205;28;20394;-71
2023/06/17 07:34:20;;;;;;;7.28;4.30;;;25.80;40.50;;;;;;6240198;28;20037;-69
2023/06/17 07:37:21;;;;;;;4.35;3.60;;;25.90;40.40;;;;;;6239956;28;20044;-70
2023/06/17 07:40:24;;;;;;;5.55;3.63;;;25.90;40.30;;;;;;6239804;28;20021;-70
2023/06/17 07:43:25;;;;;;;7.53;4.05;;;25.90;40.00;;;;;;6241085;28;20519;-70
2023/06/17 07:46:26;;;;;;;7.22;4.05;;;25.90;39.90;;;;;;6241574;28;20122;-71
2023/06/17 07:49:29;;;;;;;5.78;3.97;;;25.90;39.70;;;;;;6240148;28;20037;-72
2023/06/17 07:52:32;;;;;;;9.38;4.07;;;26.00;39.50;;;;;;6239673;28;20034;-72
2023/06/17 07:55:33;;;;;;;13.18;3.85;;;26.10;39.30;;;;;;6239204;28;20034;-71
2023/06/17 07:58:34;;;;;;;12.00;4.18;;;26.20;38.80;;;;;;6240624;28;20077;-71
2023/06/17 08:01:37;;;;;;;7.85;4.30;;;26.20;38.50;;;;;;6238729;28;20397;-70
2023/06/17 08:04:37;;;;;;;6.38;4.13;;;26.40;38.70;;;;;;6240810;28;20021;-69
2023/06/17 08:07:38;;;;;;;5.85;4.03;;;26.50;38.50;;;;;;6239055;28;20041;-69
2023/06/17 08:10:39;;;;;;;8.57;3.83;;;26.70;38.20;;;;;;6240623;28;20032;-73
2023/06/17 08:13:40;;;;;;;7.15;4.38;;;26.90;38.10;;;;;;6240572;28;20460;-73
2023/06/17 08:16:45;;;;;;;6.03;3.88;;;27.00;37.80;;;;;;6239333;28;20033;-72
2023/06/17 08:19:46;;;;;;;6.75;4.25;;;27.10;37.30;;;;;;6239031;28;20447;-71
2023/06/17 08:22:47;;;;;;;6.47;4.25;;;27.10;37.20;;;;;;6239092;28;20057;-71
2023/06/17 08:25:49;;;;;;;9.23;4.22;;;27.20;37.00;;;;;;6239172;28;20026;-74
2023/06/17 08:28:50;;;;;;;6.20;3.70;;;27.30;36.80;;;;;;6240617;28;20032;-71
2023/06/17 08:31:55;;;;;;;6.32;3.72;;;27.40;36.60;;;;;;6239906;28;20033;-70
2023/06/17 08:34:56;;;;;;;6.57;4.00;;;27.50;36.40;;;;;;6239100;28;20071;-71
2023/06/17 08:37:56;;;;;;;10.48;3.55;;;27.50;36.20;;;;;;6238577;28;20335;-70
2023/06/17 08:40:57;;;;;;;6.43;4.10;;;27.60;36.00;;;;;;6240316;28;20028;-73
2023/06/17 08:44:01;;;;;;;9.02;4.30;;;27.70;35.80;;;;;;6239933;28;20052;-72
2023/06/17 08:47:03;;;;;;;7.00;4.00;;;27.80;35.50;;;;;;6240279;28;20021;-71
2023/06/17 08:50:06;;;;;;;4.68;3.60;;;28.00;35.20;;;;;;6237962;28;20041;-71
2023/06/17 08:53:07;;;;;;;9.48;4.05;;;28.10;35.10;;;;;;6253470;28;20721;-72
2023/06/17 08:56:08;;;;;;;6.57;3.70;;;28.10;34.90;;;;;;6238421;28;20402;-72
2023/06/17 08:59:09;;;;;;;7.00;3.58;;;28.20;34.70;;;;;;6234058;28;20036;-70
2023/06/17 09:02:10;;;;;;;8.93;3.83;;;28.20;34.50;;;;;;6237234;28;20033;-71
2023/06/17 09:05:12;;;;;;;6.68;3.85;;;28.30;34.20;;;;;;6238346;28;20091;-72
2023/06/17 09:08:13;;;;;;;8.07;3.80;;;28.30;34.00;;;;;;6225333;28;20038;-71
2023/06/17 09:11:14;;;;;;;9.52;4.18;;;28.30;33.90;;;;;;6239243;28;20239;-70
2023/06/17 09:14:17;;;;;;;7.18;4.00;;;28.30;33.80;;;;;;6239286;28;20025;-70
2023/06/17 09:17:30;;;;;;;5.47;3.67;;;28.40;33.80;;;;;;6222001;28;20033;-70
2023/06/17 09:20:34;;;;;;;7.35;3.78;;;28.50;33.60;;;;;;6239004;28;20021;-71
2023/06/17 09:23:35;;;;;;;7.68;3.95;;;28.50;33.50;;;;;;6238907;28;20030;-70
2023/06/17 09:26:54;;;;;;;5.32;4.15;;;28.60;33.40;;;;;;6239557;28;20105;-70
2023/06/17 09:30:09;;;;;;;8.77;4.68;;;28.70;33.40;;;;;;6239372;28;20142;-73
2023/06/17 09:33:21;;;;;;;6.05;3.80;;;28.70;33.40;;;;;;6238223;28;20109;-70
2023/06/17 09:36:22;;;;;;;6.25;4.07;;;28.80;33.40;;;;;;6237440;28;20041;-70
2023/06/17 09:39:30;;;;;;;10.45;3.78;;;28.90;33.50;;;;;;6239293;28;20504;-70
2023/06/17 09:42:30;;;;;;;6.00;3.63;;;28.90;33.50;;;;;;6239054;28;20033;-70
2023/06/17 09:45:31;;;;;;;6.22;3.67;;;29.00;33.40;;;;;;6239260;28;20385;-71
2023/06/17 09:48:35;;;;;;;9.13;4.22;;;29.10;33.10;;;;;;6238800;28;20037;-70
2023/06/17 09:51:38;;;;;;;6.13;3.97;;;29.10;32.90;;;;;;6238185;28;20033;-71
2023/06/17 09:54:41;;;;;;;4.97;3.90;;;29.20;32.80;;;;;;6254153;28;20037;-71
2023/06/17 09:57:43;;;;;;;6.10;4.25;;;29.30;32.60;;;;;;6239109;28;20018;-72
2023/06/17 10:00:46;;;;;;;5.53;3.80;;;29.40;32.20;;;;;;6238697;28;20510;-71
2023/06/17 10:03:47;;;;;;;5.05;3.80;;;29.40;31.90;;;;;;6238795;28;20029;-71
2023/06/17 10:06:49;;;;;;;8.63;4.57;;;29.50;31.80;;;;;;6238450;28;20025;-70
2023/06/17 10:09:51;;;;;;;12.13;5.20;;;29.50;31.60;;;;;;6237159;28;20378;-70
2023/06/17 10:12:57;;;;;;;11.23;6.25;;;29.50;31.40;;;;;;6238235;28;20033;-72
2023/06/17 10:16:00;;;;;;;12.15;4.40;;;29.60;31.20;;;;;;6238918;28;20449;-70
2023/06/17 10:19:05;;;;;;;11.23;4.60;;;29.70;30.90;;;;;;6241782;28;20426;-71
2023/06/17 10:22:11;;;;;;;4.22;3.28;;;29.80;30.70;;;;;;6242972;28;20152;-71
2023/06/17 10:25:14;;;;;;;5.45;3.63;;;29.90;29.70;;;;;;6243132;28;20033;-71
2023/06/17 10:28:16;;;;;;;8.68;4.03;;;29.90;29.80;;;;;;6241691;28;20748;-72
2023/06/17 10:31:40;;;;;;;10.35;3.90;;;29.90;29.70;;;;;;6242737;28;20102;-70
2023/06/17 10:35:01;;;;;;;8.25;4.10;;;30.00;29.80;;;;;;6241382;28;20025;-69
2023/06/17 10:38:02;;;;;;;9.38;4.13;;;30.10;29.80;;;;;;6241005;28;20025;-71
2023/06/17 10:41:03;;;;;;;9.20;4.10;;;30.20;29.80;;;;;;6242268;28;20022;-71
2023/06/17 10:44:32;;;;;;;5.65;3.75;;;30.30;29.70;;;;;;6241927;28;20037;-71
2023/06/17 10:47:33;;;;;;;6.00;3.33;;;30.40;29.80;;;;;;6189874;28;20112;-71
2023/06/17 10:50:35;;;;;;;13.75;4.53;;;30.40;29.60;;;;;;6189157;28;20038;-71
2023/06/17 10:53:37;;;;;;;9.75;4.65;;;30.40;29.50;;;;;;6189624;28;20062;-71
2023/06/17 10:56:53;;;;;;;8.40;4.07;;;30.50;29.60;;;;;;6157628;28;20034;-71
2023/06/17 10:59:59;;;;;;;5.50;3.67;;;30.50;29.70;;;;;;6173688;28;20064;-72
2023/06/17 11:03:00;;;;;;;5.47;3.75;;;30.60;29.70;;;;;;6189643;28;20038;-72
2023/06/17 11:06:05;;;;;;;5.03;3.50;;;30.70;29.60;;;;;;6189959;28;20178;-73
2023/06/17 11:09:08;;;;;;;4.18;3.20;;;31.30;29.00;;;;;;6189953;28;20027;-71
2023/06/17 11:12:15;;;;;;;5.30;3.42;;;32.20;27.90;;;;;;6189306;28;20043;-72
2023/06/17 11:15:15;;;;;;;6.63;3.85;;;32.90;27.00;;;;;;6189795;28;20557;-72
2023/06/17 11:18:23;;;;;;;7.83;3.50;;;33.50;26.50;;;;;;6189747;28;20038;-71
2023/06/17 11:21:24;;;;;;;6.65;3.63;;;34.00;25.90;;;;;;6173206;28;20145;-73
2023/06/17 11:24:25;;;;;;;6.10;3.47;;;34.50;25.40;;;;;;6208477;28;20041;-72
2023/06/17 11:27:27;;;;;;;12.57;3.45;;;35.20;24.90;;;;;;6241431;28;20029;-72
2023/06/17 11:30:29;;;;;;;4.80;3.45;;;35.60;24.50;;;;;;6239793;28;20125;-72
2023/06/17 11:33:32;;;;;;;7.20;3.95;;;35.90;24.20;;;;;;6239192;28;20104;-72
2023/06/17 11:36:35;;;;;;;7.72;3.50;;;36.20;23.80;;;;;;6239565;28;20111;-73
2023/06/17 11:39:37;;;;;;;4.07;3.00;;;36.40;23.60;;;;;;6241442;28;20041;-72
2023/06/17 11:42:39;;;;;;;3.88;3.17;;;36.30;23.50;;;;;;6241273;28;20159;-72
2023/06/17 11:45:40;;;;;;;3.97;3.30;;;36.40;23.30;;;;;;6239954;28;20521;-71
2023/06/17 11:48:46;;;;;;;4.05;3.22;;;36.50;23.20;;;;;;6240865;28;20029;-71
2023/06/17 11:51:48;;;;;;;5.63;2.60;;;36.50;22.80;;;;;;6239313;28;20038;-71
2023/06/17 11:54:49;;;;;;;5.63;2.80;;;36.60;22.60;;;;;;6239258;28;20101;-71
2023/06/17 11:57:51;;;;;;;5.03;2.88;;;36.60;22.30;;;;;;6239277;28;20063;-73
2023/06/17 12:00:57;;;;;;;3.42;2.95;;;36.60;22.30;;;;;;6238841;28;20026;-70
2023/06/17 12:03:58;;;;;;;5.80;3.13;;;36.70;22.30;;;;;;6238909;28;20032;-71
2023/06/17 12:06:59;;;;;;;3.88;3.20;;;36.80;22.30;;;;;;6238949;28;20025;-72
2023/06/17 12:10:00;;;;;;;5.15;3.15;;;37.00;22.10;;;;;;6240807;28;20500;-72
2023/06/17 12:13:01;;;;;;;3.80;3.05;;;37.10;22.20;;;;;;6238590;28;20040;-71
2023/06/17 12:16:02;;;;;;;6.03;3.47;;;37.40;22.30;;;;;;6241003;28;20412;-70
2023/06/17 12:19:06;;;;;;;7.10;3.30;;;37.80;22.20;;;;;;6240656;28;20072;-72
2023/06/17 12:22:12;;;;;;;3.42;2.97;;;38.10;22.10;;;;;;6240363;28;20037;-72
2023/06/17 12:25:12;;;;;;;4.68;3.17;;;38.60;21.80;;;;;;6240350;28;20167;-71
2023/06/17 12:28:16;;;;;;;11.93;7.30;;;38.70;21.70;;;;;;6240416;28;20041;-70
2023/06/17 12:31:17;;;;;;;19.08;8.25;;;38.90;21.50;;;;;;6236910;28;20125;-73
2023/06/17 12:34:18;;;;;;;8.55;4.93;;;39.00;21.60;;;;;;6238541;28;20725;-70
2023/06/17 12:37:26;;;;;;;7.40;4.88;;;39.00;21.70;;;;;;6239960;28;20026;-71
2023/06/17 12:40:27;;;;;;;9.27;6.22;;;39.00;21.70;;;;;;6239729;28;20361;-71
2023/06/17 12:43:29;;;;;;;10.23;5.78;;;38.90;21.70;;;;;;6239610;28;20063;-70
2023/06/17 12:46:35;;;;;;;7.25;4.78;;;38.80;21.80;;;;;;6240050;28;20075;-71
2023/06/17 12:49:35;;;;;;;5.55;3.80;;;39.00;21.90;;;;;;6238834;28;20067;-70
2023/06/17 12:52:37;;;;;;;4.78;3.90;;;38.90;21.80;;;;;;6239323;28;20078;-70
2023/06/17 12:55:38;;;;;;;4.65;3.88;;;39.00;21.80;;;;;;6238163;28;20629;-70
2023/06/17 12:58:41;;;;;;;6.22;3.40;;;39.20;21.80;;;;;;6239824;28;20031;-72
2023/06/17 13:01:43;;;;;;;7.90;3.45;;;39.30;21.70;;;;;;6238535;28;20065;-71
2023/06/17 13:04:45;;;;;;;3.90;3.40;;;39.30;21.60;;;;;;6238157;28;20100;-71
2023/06/17 13:07:47;;;;;;;6.57;3.38;;;39.30;21.50;;;;;;6226300;28;20030;-71
2023/06/17 13:10:49;;;;;;;6.00;2.70;;;39.50;21.50;;;;;;6238786;28;20051;-71
2023/06/17 13:13:54;;;;;;;4.15;2.65;;;39.80;21.20;;;;;;6244763;28;20036;-71
2023/06/17 13:16:55;;;;;;;9.70;3.25;;;40.10;21.00;;;;;;6247415;28;20025;-71
2023/06/17 13:25:15;;;;;;;4.43;2.92;;;40.90;20.20;;;;;;6239330;28;20026;-71
2023/06/17 13:28:16;;;;;;;9.60;2.85;;;41.40;19.80;;;;;;6237271;28;20095;-69
2023/06/17 13:31:16;;;;;;;5.60;2.58;;;41.90;19.40;;;;;;6239285;28;20041;-70
2023/06/17 13:34:20;;;;;;;3.72;2.83;;;41.90;19.00;;;;;;6239431;28;20037;-71
2023/06/17 13:37:21;;;;;;;4.28;2.63;;;41.90;19.00;;;;;;6239388;28;20033;-71
2023/06/17 13:40:22;;;;;;;5.50;2.53;;;42.10;18.90;;;;;;6237749;28;20362;-71
2023/06/17 13:43:23;;;;;;;3.78;2.88;;;42.30;18.80;;;;;;6237404;28;20049;-70
2023/06/17 13:46:24;;;;;;;6.15;2.58;;;42.80;18.50;;;;;;6237901;28;20038;-70
2023/06/17 13:49:25;;;;;;;3.15;2.53;;;43.40;18.10;;;;;;6239597;28;20030;-70
2023/06/17 13:52:26;;;;;;;3.17;2.55;;;43.90;17.80;;;;;;6238489;28;20072;-71
2023/06/17 13:55:28;;;;;;;3.08;2.65;;;44.20;17.40;;;;;;6244186;28;20056;-71
2023/06/17 13:58:29;;;;;;;3.78;2.50;;;44.20;17.20;;;;;;6244820;28;20033;-71
2023/06/17 14:01:30;;;;;;;3.42;2.85;;;44.40;17.20;;;;;;6243933;28;20528;-71
2023/06/17 14:04:31;;;;;;;8.27;2.92;;;44.90;17.00;;;;;;6244242;28;20041;-70
2023/06/17 14:07:32;;;;;;;3.22;2.55;;;45.30;16.80;;;;;;6243824;28;20037;-70
2023/06/17 14:10:33;;;;;;;4.85;2.65;;;45.40;16.70;;;;;;6221116;28;20034;-70
2023/06/17 14:13:34;;;;;;;3.00;2.70;;;45.60;16.60;;;;;;6217456;28;20471;-71
2023/06/17 14:16:35;;;;;;;4.22;2.75;;;46.00;16.30;;;;;;6218029;28;20099;-71
2023/06/17 14:19:36;;;;;;;4.95;3.08;;;46.10;16.00;;;;;;6218774;28;20487;-71
2023/06/17 14:22:37;;;;;;;2.92;2.63;;;46.10;16.10;;;;;;6201363;28;20475;-71
2023/06/17 14:25:38;;;;;;;4.75;2.28;;;45.80;16.00;;;;;;6219112;28;20034;-72
2023/06/17 14:28:38;;;;;;;5.00;2.80;;;45.70;16.20;;;;;;6218898;28;20072;-72
2023/06/17 14:31:39;;;;;;;2.90;2.53;;;45.90;15.80;;;;;;6238424;28;20688;-71
2023/06/17 14:34:40;;;;;;;4.05;2.65;;;46.20;15.70;;;;;;6242938;28;20490;-70
2023/06/17 14:37:42;;;;;;;8.57;2.50;;;46.40;15.50;;;;;;6241915;28;20032;-73
2023/06/17 14:40:44;;;;;;;3.45;2.55;;;46.70;15.30;;;;;;6232829;28;20029;-71
2023/06/17 14:43:46;;;;;;;4.78;2.50;;;46.90;15.30;;;;;;6242621;28;20051;-70
2023/06/17 14:46:47;;;;;;;3.55;2.47;;;47.30;15.20;;;;;;6242941;28;20056;-71
2023/06/17 14:49:48;;;;;;;2.83;2.30;;;47.50;14.90;;;;;;6242524;28;20120;-71
2023/06/17 14:52:49;;;;;;;2.38;2.00;;;47.60;14.80;;;;;;6240980;28;20132;-71
2023/06/17 14:56:04;;;;;;;2.97;2.40;;;47.50;14.80;;;;;;6242774;28;20598;-72
2023/06/17 14:59:05;;;;;;;2.33;2.10;;;47.40;14.80;;;;;;6242725;28;20027;-72
2023/06/17 15:02:21;;;;;;;2.47;2.25;;;47.50;14.60;;;;;;6242095;28;20049;-71
2023/06/17 15:05:24;;;;;;;5.65;3.00;;;47.30;14.50;;;;;;6241395;28;20069;-70
2023/06/17 15:08:24;;;;;;;2.53;2.20;;;47.10;14.60;;;;;;6241004;28;20047;-71
2023/06/17 15:11:25;;;;;;;6.80;2.80;;;46.90;14.60;;;;;;6242253;28;20477;-71
2023/06/17 15:14:30;;;;;;;5.82;2.50;;;46.80;14.70;;;;;;6242406;28;20029;-72
2023/06/17 15:17:31;;;;;;;2.83;2.40;;;46.60;14.50;;;;;;6241040;28;20540;-70
2023/06/17 15:20:32;;;;;;;2.40;2.13;;;46.30;14.70;;;;;;6242410;28;20030;-71
2023/06/17 15:23:33;;;;;;;2.90;2.20;;;46.00;14.80;;;;;;6240048;28;20037;-71
2023/06/17 15:26:34;;;;;;;2.65;2.30;;;45.50;15.00;;;;;;6241941;28;20034;-71
2023/06/17 15:29:35;;;;;;;2.85;2.42;;;45.00;15.10;;;;;;6242218;28;20022;-71
2023/06/17 15:32:36;;;;;;;3.97;2.42;;;44.30;15.30;;;;;;6242022;28;20133;-71
2023/06/17 15:35:37;;;;;;;3.28;2.20;;;43.60;15.70;;;;;;6241193;28;20044;-70
2023/06/17 15:38:38;;;;;;;3.63;2.50;;;43.00;15.90;;;;;;6240754;28;20029;-71
2023/06/17 15:41:38;;;;;;;2.90;2.40;;;42.20;16.30;;;;;;6240490;28;20406;-70
2023/06/17 15:44:40;;;;;;;3.47;2.35;;;41.80;16.60;;;;;;6242148;28;20147;-71
2023/06/17 15:47:41;;;;;;;5.45;2.38;;;41.70;16.70;;;;;;6240518;28;20417;-71
2023/06/17 15:50:42;;;;;;;2.97;1.95;;;41.70;16.50;;;;;;6217600;28;20038;-72
2023/06/17 15:53:43;;;;;;;2.70;2.05;;;41.70;16.50;;;;;;6215067;28;20065;-71